sensor_id;sensor_type;location;lat;lon;timestamp;P1;durP1;ratioP1;P2;durP2;ratioP2
19235;SDS011;9752;54.270;12.470;2022-11-21T00:00:05;10.43;;;6.10;;
19235;SDS011;9752;54.270;12.470;2022-11-21T00:05:09;6.47;;;5.10;;
19235;SDS011;9752;54.270;12.470;2022-11-21T00:10:11;9.17;;;6.60;;
19235;SDS011;9752;54.270;12.470;2022-11-21T00:15:12;11.23;;;6.90;;
19235;SDS011;9752;54.270;12.470;2022-11-21T00:20:16;15.17;;;9.00;;
19235;SDS011;9752;54.270;12.470;2022-11-21T00:25:18;8.97;;;6.97;;
19235;SDS011;9752;54.270;12.470;2022-11-21T00:30:20;15.30;;;8.63;;
19235;SDS011;9752;54.270;12.470;2022-11-21T00:35:23;10.13;;;7.40;;
19235;SDS011;9752;54.270;12.470;2022-11-21T00:40:25;9.73;;;7.20;;
19235;SDS011;9752;54.270;12.470;2022-11-21T00:45:26;13.00;;;8.10;;
19235;SDS011;9752;54.270;12.470;2022-11-21T00:50:29;14.33;;;8.73;;
19235;SDS011;9752;54.270;12.470;2022-11-21T00:55:31;11.57;;;8.10;;
19235;SDS011;9752;54.270;12.470;2022-11-21T01:00:32;12.63;;;8.00;;
19235;SDS011;9752;54.270;12.470;2022-11-21T01:05:35;14.47;;;9.37;;
19235;SDS011;9752;54.270;12.470;2022-11-21T01:10:37;13.80;;;8.97;;
19235;SDS011;9752;54.270;12.470;2022-11-21T01:15:39;15.57;;;9.37;;
19235;SDS011;9752;54.270;12.470;2022-11-21T01:20:42;13.20;;;9.03;;
19235;SDS011;9752;54.270;12.470;2022-11-21T01:25:43;17.40;;;10.77;;
19235;SDS011;9752;54.270;12.470;2022-11-21T01:30:45;20.47;;;11.20;;
19235;SDS011;9752;54.270;12.470;2022-11-21T01:35:48;18.07;;;9.97;;
19235;SDS011;9752;54.270;12.470;2022-11-21T01:40:50;17.73;;;10.10;;
19235;SDS011;9752;54.270;12.470;2022-11-21T01:45:52;16.37;;;10.20;;
19235;SDS011;9752;54.270;12.470;2022-11-21T01:50:58;20.47;;;11.70;;
19235;SDS011;9752;54.270;12.470;2022-11-21T01:56:06;19.37;;;11.20;;
19235;SDS011;9752;54.270;12.470;2022-11-21T02:01:08;24.37;;;13.90;;
19235;SDS011;9752;54.270;12.470;2022-11-21T02:06:13;20.67;;;10.67;;
19235;SDS011;9752;54.270;12.470;2022-11-21T02:11:16;18.33;;;11.40;;
19235;SDS011;9752;54.270;12.470;2022-11-21T02:16:26;24.37;;;13.33;;
19235;SDS011;9752;54.270;12.470;2022-11-21T02:21:32;18.47;;;11.77;;
19235;SDS011;9752;54.270;12.470;2022-11-21T02:26:43;20.97;;;12.63;;
19235;SDS011;9752;54.270;12.470;2022-11-21T02:31:46;25.83;;;14.13;;
19235;SDS011;9752;54.270;12.470;2022-11-21T02:36:48;22.27;;;13.23;;
19235;SDS011;9752;54.270;12.470;2022-11-21T02:41:53;29.83;;;15.90;;
19235;SDS011;9752;54.270;12.470;2022-11-21T02:47:01;30.30;;;14.87;;
19235;SDS011;9752;54.270;12.470;2022-11-21T02:52:03;23.67;;;15.50;;
19235;SDS011;9752;54.270;12.470;2022-11-21T02:57:06;28.67;;;16.40;;
19235;SDS011;9752;54.270;12.470;2022-11-21T03:02:08;29.83;;;14.23;;
19235;SDS011;9752;54.270;12.470;2022-11-21T03:07:09;28.20;;;15.53;;
19235;SDS011;9752;54.270;12.470;2022-11-21T03:12:12;28.23;;;16.27;;
19235;SDS011;9752;54.270;12.470;2022-11-21T03:17:14;31.17;;;15.30;;
19235;SDS011;9752;54.270;12.470;2022-11-21T03:22:16;30.93;;;17.17;;
19235;SDS011;9752;54.270;12.470;2022-11-21T03:27:19;26.97;;;16.07;;
19235;SDS011;9752;54.270;12.470;2022-11-21T03:32:21;28.13;;;15.70;;
19235;SDS011;9752;54.270;12.470;2022-11-21T03:37:22;30.43;;;16.13;;
19235;SDS011;9752;54.270;12.470;2022-11-21T03:42:26;33.23;;;17.17;;
19235;SDS011;9752;54.270;12.470;2022-11-21T03:47:28;32.93;;;17.93;;
19235;SDS011;9752;54.270;12.470;2022-11-21T03:52:30;29.13;;;17.07;;
19235;SDS011;9752;54.270;12.470;2022-11-21T03:57:34;33.30;;;18.67;;
19235;SDS011;9752;54.270;12.470;2022-11-21T04:02:35;33.33;;;17.07;;
19235;SDS011;9752;54.270;12.470;2022-11-21T04:07:37;31.90;;;16.77;;
19235;SDS011;9752;54.270;12.470;2022-11-21T04:12:40;29.80;;;16.03;;
19235;SDS011;9752;54.270;12.470;2022-11-21T04:17:42;24.40;;;14.40;;
19235;SDS011;9752;54.270;12.470;2022-11-21T04:22:43;29.60;;;16.20;;
19235;SDS011;9752;54.270;12.470;2022-11-21T04:27:46;27.00;;;16.10;;
19235;SDS011;9752;54.270;12.470;2022-11-21T04:32:49;31.57;;;17.57;;
19235;SDS011;9752;54.270;12.470;2022-11-21T04:37:51;29.17;;;15.73;;
19235;SDS011;9752;54.270;12.470;2022-11-21T04:42:54;30.23;;;16.83;;
19235;SDS011;9752;54.270;12.470;2022-11-21T04:47:55;28.80;;;17.30;;
19235;SDS011;9752;54.270;12.470;2022-11-21T04:52:57;32.07;;;17.17;;
19235;SDS011;9752;54.270;12.470;2022-11-21T04:58:00;35.60;;;18.90;;
19235;SDS011;9752;54.270;12.470;2022-11-21T05:03:02;34.30;;;18.50;;
19235;SDS011;9752;54.270;12.470;2022-11-21T05:08:04;30.03;;;16.47;;
19235;SDS011;9752;54.270;12.470;2022-11-21T05:13:09;36.10;;;18.60;;
19235;SDS011;9752;54.270;12.470;2022-11-21T05:18:22;30.10;;;17.40;;
19235;SDS011;9752;54.270;12.470;2022-11-21T05:23:24;34.80;;;17.97;;
19235;SDS011;9752;54.270;12.470;2022-11-21T05:28:27;28.90;;;17.77;;
19235;SDS011;9752;54.270;12.470;2022-11-21T05:33:29;32.57;;;17.80;;
19235;SDS011;9752;54.270;12.470;2022-11-21T05:38:31;41.47;;;21.10;;
19235;SDS011;9752;54.270;12.470;2022-11-21T05:43:34;36.00;;;20.03;;
19235;SDS011;9752;54.270;12.470;2022-11-21T05:48:49;34.03;;;16.83;;
19235;SDS011;9752;54.270;12.470;2022-11-21T05:53:51;36.83;;;19.77;;
19235;SDS011;9752;54.270;12.470;2022-11-21T05:58:54;37.63;;;22.23;;
19235;SDS011;9752;54.270;12.470;2022-11-21T06:03:56;34.37;;;18.93;;
19235;SDS011;9752;54.270;12.470;2022-11-21T06:09:01;39.03;;;21.17;;
19235;SDS011;9752;54.270;12.470;2022-11-21T06:14:05;36.23;;;19.83;;
19235;SDS011;9752;54.270;12.470;2022-11-21T06:19:07;39.07;;;21.53;;
19235;SDS011;9752;54.270;12.470;2022-11-21T06:24:08;42.73;;;21.50;;
19235;SDS011;9752;54.270;12.470;2022-11-21T06:29:12;42.70;;;20.10;;
19235;SDS011;9752;54.270;12.470;2022-11-21T06:34:15;40.53;;;21.17;;
19235;SDS011;9752;54.270;12.470;2022-11-21T06:39:17;42.07;;;21.17;;
19235;SDS011;9752;54.270;12.470;2022-11-21T06:44:20;45.83;;;22.90;;
19235;SDS011;9752;54.270;12.470;2022-11-21T06:49:22;38.00;;;20.80;;
19235;SDS011;9752;54.270;12.470;2022-11-21T06:54:24;36.37;;;20.57;;
19235;SDS011;9752;54.270;12.470;2022-11-21T06:59:27;34.53;;;17.87;;
19235;SDS011;9752;54.270;12.470;2022-11-21T07:04:28;34.20;;;19.23;;
19235;SDS011;9752;54.270;12.470;2022-11-21T07:09:30;37.13;;;18.77;;
19235;SDS011;9752;54.270;12.470;2022-11-21T07:14:34;32.60;;;17.50;;
19235;SDS011;9752;54.270;12.470;2022-11-21T07:19:36;35.13;;;18.93;;
19235;SDS011;9752;54.270;12.470;2022-11-21T07:24:37;30.23;;;17.43;;
19235;SDS011;9752;54.270;12.470;2022-11-21T07:29:40;29.93;;;17.13;;
19235;SDS011;9752;54.270;12.470;2022-11-21T07:34:42;26.33;;;15.07;;
19235;SDS011;9752;54.270;12.470;2022-11-21T07:39:43;28.87;;;17.13;;
19235;SDS011;9752;54.270;12.470;2022-11-21T07:44:46;25.13;;;14.67;;
19235;SDS011;9752;54.270;12.470;2022-11-21T07:49:48;28.60;;;13.73;;
19235;SDS011;9752;54.270;12.470;2022-11-21T07:54:50;28.63;;;16.47;;
19235;SDS011;9752;54.270;12.470;2022-11-21T07:59:53;23.17;;;15.37;;
19235;SDS011;9752;54.270;12.470;2022-11-21T08:04:55;22.43;;;12.90;;
19235;SDS011;9752;54.270;12.470;2022-11-21T08:09:56;21.67;;;13.60;;
19235;SDS011;9752;54.270;12.470;2022-11-21T08:14:59;29.13;;;14.77;;
19235;SDS011;9752;54.270;12.470;2022-11-21T08:20:01;22.27;;;13.07;;
19235;SDS011;9752;54.270;12.470;2022-11-21T08:25:04;22.23;;;13.67;;
19235;SDS011;9752;54.270;12.470;2022-11-21T08:30:11;23.87;;;15.63;;
19235;SDS011;9752;54.270;12.470;2022-11-21T08:35:14;24.13;;;15.53;;
19235;SDS011;9752;54.270;12.470;2022-11-21T08:40:16;21.33;;;13.27;;
19235;SDS011;9752;54.270;12.470;2022-11-21T08:45:19;17.40;;;14.33;;
19235;SDS011;9752;54.270;12.470;2022-11-21T08:50:21;17.30;;;12.93;;
19235;SDS011;9752;54.270;12.470;2022-11-21T08:55:23;29.33;;;13.73;;
19235;SDS011;9752;54.270;12.470;2022-11-21T09:00:26;17.93;;;12.53;;
19235;SDS011;9752;54.270;12.470;2022-11-21T09:05:28;17.50;;;12.83;;
19235;SDS011;9752;54.270;12.470;2022-11-21T09:10:29;17.60;;;12.43;;
19235;SDS011;9752;54.270;12.470;2022-11-21T09:15:32;17.67;;;12.20;;
19235;SDS011;9752;54.270;12.470;2022-11-21T09:21:03;14.83;;;11.17;;
19235;SDS011;9752;54.270;12.470;2022-11-21T09:26:05;15.47;;;13.47;;
19235;SDS011;9752;54.270;12.470;2022-11-21T09:31:08;16.30;;;13.27;;
19235;SDS011;9752;54.270;12.470;2022-11-21T09:36:09;18.97;;;14.10;;
19235;SDS011;9752;54.270;12.470;2022-11-21T09:41:15;17.67;;;15.20;;
19235;SDS011;9752;54.270;12.470;2022-11-21T09:46:46;14.37;;;12.90;;
19235;SDS011;9752;54.270;12.470;2022-11-21T09:51:52;15.73;;;13.27;;
19235;SDS011;9752;54.270;12.470;2022-11-21T09:56:57;17.03;;;12.63;;
19235;SDS011;9752;54.270;12.470;2022-11-21T10:02:01;16.57;;;12.93;;
19235;SDS011;9752;54.270;12.470;2022-11-21T10:07:13;16.03;;;13.27;;
19235;SDS011;9752;54.270;12.470;2022-11-21T10:12:23;17.27;;;13.93;;
19235;SDS011;9752;54.270;12.470;2022-11-21T10:17:42;15.33;;;12.63;;
19235;SDS011;9752;54.270;12.470;2022-11-21T10:22:59;15.77;;;13.80;;
19235;SDS011;9752;54.270;12.470;2022-11-21T10:28:15;17.03;;;11.97;;
19235;SDS011;9752;54.270;12.470;2022-11-21T10:33:27;14.83;;;11.50;;
19235;SDS011;9752;54.270;12.470;2022-11-21T10:38:33;13.23;;;11.83;;
19235;SDS011;9752;54.270;12.470;2022-11-21T10:43:39;13.13;;;11.80;;
19235;SDS011;9752;54.270;12.470;2022-11-21T10:49:03;13.37;;;11.97;;
19235;SDS011;9752;54.270;12.470;2022-11-21T10:54:07;14.83;;;12.73;;
19235;SDS011;9752;54.270;12.470;2022-11-21T10:59:29;16.23;;;12.13;;
19235;SDS011;9752;54.270;12.470;2022-11-21T11:04:32;16.07;;;14.47;;
19235;SDS011;9752;54.270;12.470;2022-11-21T11:09:34;13.43;;;12.13;;
19235;SDS011;9752;54.270;12.470;2022-11-21T11:14:36;16.43;;;12.43;;
19235;SDS011;9752;54.270;12.470;2022-11-21T11:19:39;18.70;;;13.17;;
19235;SDS011;9752;54.270;12.470;2022-11-21T11:25:01;17.87;;;12.50;;
19235;SDS011;9752;54.270;12.470;2022-11-21T11:30:05;13.30;;;11.23;;
19235;SDS011;9752;54.270;12.470;2022-11-21T11:35:15;13.50;;;12.10;;
19235;SDS011;9752;54.270;12.470;2022-11-21T11:40:23;13.67;;;12.53;;
19235;SDS011;9752;54.270;12.470;2022-11-21T11:45:34;14.47;;;12.83;;
19235;SDS011;9752;54.270;12.470;2022-11-21T11:51:12;13.70;;;12.30;;
19235;SDS011;9752;54.270;12.470;2022-11-21T11:56:21;14.33;;;12.93;;
19235;SDS011;9752;54.270;12.470;2022-11-21T12:01:26;14.67;;;13.37;;
19235;SDS011;9752;54.270;12.470;2022-11-21T12:06:36;13.77;;;12.47;;
19235;SDS011;9752;54.270;12.470;2022-11-21T12:11:48;15.30;;;13.03;;
19235;SDS011;9752;54.270;12.470;2022-11-21T12:17:07;14.00;;;12.60;;
19235;SDS011;9752;54.270;12.470;2022-11-21T12:22:11;15.13;;;13.23;;
19235;SDS011;9752;54.270;12.470;2022-11-21T12:27:22;14.43;;;13.13;;
19235;SDS011;9752;54.270;12.470;2022-11-21T12:32:33;13.83;;;12.27;;
19235;SDS011;9752;54.270;12.470;2022-11-21T12:37:47;13.17;;;11.80;;
19235;SDS011;9752;54.270;12.470;2022-11-21T12:43:00;14.03;;;12.63;;
19235;SDS011;9752;54.270;12.470;2022-11-21T12:48:16;13.27;;;12.00;;
19235;SDS011;9752;54.270;12.470;2022-11-21T12:53:39;14.10;;;12.63;;
19235;SDS011;9752;54.270;12.470;2022-11-21T12:59:06;12.87;;;11.67;;
19235;SDS011;9752;54.270;12.470;2022-11-21T13:04:14;16.27;;;14.30;;
19235;SDS011;9752;54.270;12.470;2022-11-21T13:09:20;18.07;;;13.40;;
19235;SDS011;9752;54.270;12.470;2022-11-21T13:14:28;15.90;;;13.27;;
19235;SDS011;9752;54.270;12.470;2022-11-21T13:19:35;13.73;;;12.43;;
19235;SDS011;9752;54.270;12.470;2022-11-21T13:24:55;14.30;;;12.80;;
19235;SDS011;9752;54.270;12.470;2022-11-21T13:41:07;14.93;;;12.00;;
19235;SDS011;9752;54.270;12.470;2022-11-21T13:51:59;21.87;;;15.83;;
19235;SDS011;9752;54.270;12.470;2022-11-21T13:57:15;20.50;;;14.47;;
19235;SDS011;9752;54.270;12.470;2022-11-21T14:08:12;17.43;;;13.93;;
19235;SDS011;9752;54.270;12.470;2022-11-21T14:13:21;20.03;;;14.80;;
19235;SDS011;9752;54.270;12.470;2022-11-21T14:18:28;20.90;;;14.80;;
19235;SDS011;9752;54.270;12.470;2022-11-21T14:23:31;21.40;;;15.27;;
19235;SDS011;9752;54.270;12.470;2022-11-21T14:28:36;19.77;;;13.07;;
19235;SDS011;9752;54.270;12.470;2022-11-21T14:33:38;19.00;;;14.07;;
19235;SDS011;9752;54.270;12.470;2022-11-21T14:38:42;22.50;;;14.40;;
19235;SDS011;9752;54.270;12.470;2022-11-21T14:43:46;20.00;;;14.43;;
19235;SDS011;9752;54.270;12.470;2022-11-21T14:48:48;19.50;;;14.07;;
19235;SDS011;9752;54.270;12.470;2022-11-21T14:53:51;16.77;;;14.07;;
19235;SDS011;9752;54.270;12.470;2022-11-21T14:58:55;23.97;;;15.40;;
19235;SDS011;9752;54.270;12.470;2022-11-21T15:03:59;23.23;;;16.07;;
19235;SDS011;9752;54.270;12.470;2022-11-21T15:09:03;18.73;;;14.13;;
19235;SDS011;9752;54.270;12.470;2022-11-21T15:14:09;20.10;;;12.87;;
19235;SDS011;9752;54.270;12.470;2022-11-21T15:19:19;19.40;;;13.83;;
19235;SDS011;9752;54.270;12.470;2022-11-21T15:24:35;18.63;;;14.30;;
19235;SDS011;9752;54.270;12.470;2022-11-21T15:29:42;16.73;;;13.37;;
19235;SDS011;9752;54.270;12.470;2022-11-21T15:34:44;15.07;;;12.27;;
19235;SDS011;9752;54.270;12.470;2022-11-21T15:39:47;13.73;;;11.77;;
19235;SDS011;9752;54.270;12.470;2022-11-21T15:45:00;17.40;;;12.43;;
19235;SDS011;9752;54.270;12.470;2022-11-21T15:50:03;20.77;;;14.40;;
19235;SDS011;9752;54.270;12.470;2022-11-21T15:55:08;16.47;;;12.83;;
19235;SDS011;9752;54.270;12.470;2022-11-21T16:00:15;19.37;;;13.70;;
19235;SDS011;9752;54.270;12.470;2022-11-21T16:05:17;15.77;;;12.17;;
19235;SDS011;9752;54.270;12.470;2022-11-21T16:10:19;17.13;;;13.43;;
19235;SDS011;9752;54.270;12.470;2022-11-21T16:15:22;21.43;;;15.83;;
19235;SDS011;9752;54.270;12.470;2022-11-21T16:20:24;25.70;;;16.57;;
19235;SDS011;9752;54.270;12.470;2022-11-21T16:25:25;24.47;;;16.67;;
19235;SDS011;9752;54.270;12.470;2022-11-21T16:30:29;25.10;;;16.53;;
19235;SDS011;9752;54.270;12.470;2022-11-21T16:35:30;24.37;;;15.40;;
19235;SDS011;9752;54.270;12.470;2022-11-21T16:40:32;25.83;;;15.87;;
19235;SDS011;9752;54.270;12.470;2022-11-21T16:45:35;24.63;;;15.70;;
19235;SDS011;9752;54.270;12.470;2022-11-21T16:50:37;29.50;;;17.30;;
19235;SDS011;9752;54.270;12.470;2022-11-21T16:55:38;29.73;;;18.43;;
19235;SDS011;9752;54.270;12.470;2022-11-21T17:00:42;33.60;;;20.40;;
19235;SDS011;9752;54.270;12.470;2022-11-21T17:05:43;34.13;;;21.70;;
19235;SDS011;9752;54.270;12.470;2022-11-21T17:10:56;37.23;;;22.17;;
19235;SDS011;9752;54.270;12.470;2022-11-21T17:16:03;36.13;;;20.60;;
19235;SDS011;9752;54.270;12.470;2022-11-21T17:21:06;44.17;;;24.70;;
19235;SDS011;9752;54.270;12.470;2022-11-21T17:26:09;47.73;;;25.07;;
19235;SDS011;9752;54.270;12.470;2022-11-21T17:31:14;47.03;;;27.07;;
19235;SDS011;9752;54.270;12.470;2022-11-21T17:36:18;53.70;;;27.73;;
19235;SDS011;9752;54.270;12.470;2022-11-21T17:41:21;56.03;;;27.13;;
19235;SDS011;9752;54.270;12.470;2022-11-21T17:46:25;56.13;;;29.40;;
19235;SDS011;9752;54.270;12.470;2022-11-21T17:51:28;60.30;;;29.73;;
19235;SDS011;9752;54.270;12.470;2022-11-21T17:56:33;61.33;;;31.17;;
19235;SDS011;9752;54.270;12.470;2022-11-21T18:01:37;62.60;;;30.97;;
19235;SDS011;9752;54.270;12.470;2022-11-21T18:06:38;76.57;;;37.83;;
19235;SDS011;9752;54.270;12.470;2022-11-21T18:11:40;81.37;;;39.17;;
19235;SDS011;9752;54.270;12.470;2022-11-21T18:16:43;63.30;;;33.10;;
19235;SDS011;9752;54.270;12.470;2022-11-21T18:21:45;46.73;;;26.03;;
19235;SDS011;9752;54.270;12.470;2022-11-21T18:26:47;57.03;;;28.33;;
19235;SDS011;9752;54.270;12.470;2022-11-21T18:31:50;54.73;;;29.17;;
19235;SDS011;9752;54.270;12.470;2022-11-21T18:36:51;59.73;;;29.80;;
19235;SDS011;9752;54.270;12.470;2022-11-21T18:41:53;68.30;;;29.40;;
19235;SDS011;9752;54.270;12.470;2022-11-21T18:46:56;61.30;;;29.57;;
19235;SDS011;9752;54.270;12.470;2022-11-21T18:51:58;69.50;;;32.60;;
19235;SDS011;9752;54.270;12.470;2022-11-21T18:57:00;66.43;;;31.30;;
19235;SDS011;9752;54.270;12.470;2022-11-21T19:02:03;59.93;;;30.23;;
19235;SDS011;9752;54.270;12.470;2022-11-21T19:07:04;61.27;;;31.10;;
19235;SDS011;9752;54.270;12.470;2022-11-21T19:12:06;73.73;;;34.40;;
19235;SDS011;9752;54.270;12.470;2022-11-21T19:17:09;76.63;;;32.90;;
19235;SDS011;9752;54.270;12.470;2022-11-21T19:22:11;75.30;;;34.63;;
19235;SDS011;9752;54.270;12.470;2022-11-21T19:27:12;66.13;;;30.47;;
19235;SDS011;9752;54.270;12.470;2022-11-21T19:32:15;64.80;;;32.37;;
19235;SDS011;9752;54.270;12.470;2022-11-21T19:37:17;68.20;;;30.43;;
19235;SDS011;9752;54.270;12.470;2022-11-21T19:42:19;66.50;;;31.67;;
19235;SDS011;9752;54.270;12.470;2022-11-21T19:47:22;71.20;;;33.90;;
19235;SDS011;9752;54.270;12.470;2022-11-21T19:52:24;73.70;;;32.80;;
19235;SDS011;9752;54.270;12.470;2022-11-21T19:57:25;63.47;;;31.90;;
19235;SDS011;9752;54.270;12.470;2022-11-21T20:02:28;66.47;;;31.60;;
19235;SDS011;9752;54.270;12.470;2022-11-21T20:07:31;65.30;;;31.73;;
19235;SDS011;9752;54.270;12.470;2022-11-21T20:12:34;66.97;;;30.87;;
19235;SDS011;9752;54.270;12.470;2022-11-21T20:17:37;59.57;;;30.63;;
19235;SDS011;9752;54.270;12.470;2022-11-21T20:22:38;60.43;;;29.60;;
19235;SDS011;9752;54.270;12.470;2022-11-21T20:27:40;65.00;;;33.07;;
19235;SDS011;9752;54.270;12.470;2022-11-21T20:32:43;59.33;;;29.70;;
19235;SDS011;9752;54.270;12.470;2022-11-21T20:37:45;62.43;;;30.27;;
19235;SDS011;9752;54.270;12.470;2022-11-21T20:42:46;64.00;;;31.03;;
19235;SDS011;9752;54.270;12.470;2022-11-21T20:47:49;65.97;;;29.27;;
19235;SDS011;9752;54.270;12.470;2022-11-21T20:52:51;67.10;;;30.93;;
19235;SDS011;9752;54.270;12.470;2022-11-21T20:57:53;63.90;;;30.97;;
19235;SDS011;9752;54.270;12.470;2022-11-21T21:02:56;63.43;;;31.70;;
19235;SDS011;9752;54.270;12.470;2022-11-21T21:07:57;63.00;;;30.00;;
19235;SDS011;9752;54.270;12.470;2022-11-21T21:12:59;64.97;;;30.37;;
19235;SDS011;9752;54.270;12.470;2022-11-21T21:18:02;64.80;;;29.70;;
19235;SDS011;9752;54.270;12.470;2022-11-21T21:23:04;60.17;;;28.63;;
19235;SDS011;9752;54.270;12.470;2022-11-21T21:28:06;58.80;;;28.70;;
19235;SDS011;9752;54.270;12.470;2022-11-21T21:33:09;54.53;;;27.00;;
19235;SDS011;9752;54.270;12.470;2022-11-21T21:38:10;52.57;;;25.83;;
19235;SDS011;9752;54.270;12.470;2022-11-21T21:43:12;47.53;;;25.67;;
19235;SDS011;9752;54.270;12.470;2022-11-21T21:48:15;48.93;;;25.37;;
19235;SDS011;9752;54.270;12.470;2022-11-21T21:53:17;51.17;;;25.40;;
19235;SDS011;9752;54.270;12.470;2022-11-21T21:58:18;51.70;;;25.03;;
19235;SDS011;9752;54.270;12.470;2022-11-21T22:03:21;64.20;;;27.20;;
19235;SDS011;9752;54.270;12.470;2022-11-21T22:08:23;47.00;;;24.53;;
19235;SDS011;9752;54.270;12.470;2022-11-21T22:13:25;44.37;;;22.03;;
19235;SDS011;9752;54.270;12.470;2022-11-21T22:18:28;49.70;;;24.73;;
19235;SDS011;9752;54.270;12.470;2022-11-21T22:23:30;43.60;;;23.90;;
19235;SDS011;9752;54.270;12.470;2022-11-21T22:28:34;44.97;;;24.23;;
19235;SDS011;9752;54.270;12.470;2022-11-21T22:33:37;38.27;;;21.57;;
19235;SDS011;9752;54.270;12.470;2022-11-21T22:38:40;37.73;;;20.43;;
19235;SDS011;9752;54.270;12.470;2022-11-21T22:43:42;38.57;;;22.70;;
19235;SDS011;9752;54.270;12.470;2022-11-21T22:48:46;34.33;;;20.10;;
19235;SDS011;9752;54.270;12.470;2022-11-21T22:53:48;30.77;;;18.03;;
19235;SDS011;9752;54.270;12.470;2022-11-21T22:58:50;34.13;;;19.33;;
19235;SDS011;9752;54.270;12.470;2022-11-21T23:03:53;32.80;;;19.27;;
19235;SDS011;9752;54.270;12.470;2022-11-21T23:08:56;39.30;;;20.13;;
19235;SDS011;9752;54.270;12.470;2022-11-21T23:13:57;31.13;;;18.53;;
19235;SDS011;9752;54.270;12.470;2022-11-21T23:19:01;33.00;;;19.37;;
19235;SDS011;9752;54.270;12.470;2022-11-21T23:24:03;33.67;;;18.47;;
19235;SDS011;9752;54.270;12.470;2022-11-21T23:29:05;31.40;;;17.57;;
19235;SDS011;9752;54.270;12.470;2022-11-21T23:34:08;32.70;;;18.03;;
19235;SDS011;9752;54.270;12.470;2022-11-21T23:39:10;33.53;;;18.73;;
19235;SDS011;9752;54.270;12.470;2022-11-21T23:44:12;29.23;;;17.13;;
19235;SDS011;9752;54.270;12.470;2022-11-21T23:49:15;36.23;;;21.30;;
19235;SDS011;9752;54.270;12.470;2022-11-21T23:54:16;36.93;;;20.83;;
19235;SDS011;9752;54.270;12.470;2022-11-21T23:59:18;33.53;;;20.73;;
